sensor_id;sensor_type;location;lat;lon;timestamp;P1;durP1;ratioP1;P2;durP2;ratioP2
13580;SDS011;6861;46.170;7.222;2023-05-21T00:00:38;1.08;;;0.50;;
13580;SDS011;6861;46.170;7.222;2023-05-21T00:03:06;0.63;;;0.40;;
13580;SDS011;6861;46.170;7.222;2023-05-21T00:05:43;0.95;;;0.30;;
13580;SDS011;6861;46.170;7.222;2023-05-21T00:08:12;1.85;;;0.50;;
13580;SDS011;6861;46.170;7.222;2023-05-21T00:10:40;1.33;;;0.47;;
13580;SDS011;6861;46.170;7.222;2023-05-21T00:13:08;0.45;;;0.30;;
13580;SDS011;6861;46.170;7.222;2023-05-21T00:15:36;1.75;;;0.47;;
13580;SDS011;6861;46.170;7.222;2023-05-21T00:18:05;1.30;;;0.30;;
13580;SDS011;6861;46.170;7.222;2023-05-21T00:20:33;1.13;;;0.40;;
13580;SDS011;6861;46.170;7.222;2023-05-21T00:23:03;1.00;;;0.40;;
13580;SDS011;6861;46.170;7.222;2023-05-21T00:25:32;1.75;;;0.50;;
13580;SDS011;6861;46.170;7.222;2023-05-21T00:28:00;4.03;;;0.30;;
13580;SDS011;6861;46.170;7.222;2023-05-21T00:30:29;0.43;;;0.30;;
13580;SDS011;6861;46.170;7.222;2023-05-21T00:32:57;0.60;;;0.30;;
13580;SDS011;6861;46.170;7.222;2023-05-21T00:35:28;0.50;;;0.30;;
13580;SDS011;6861;46.170;7.222;2023-05-21T00:37:56;1.40;;;0.80;;
13580;SDS011;6861;46.170;7.222;2023-05-21T00:40:27;0.50;;;0.40;;
13580;SDS011;6861;46.170;7.222;2023-05-21T00:42:55;0.40;;;0.30;;
13580;SDS011;6861;46.170;7.222;2023-05-21T00:45:23;0.75;;;0.40;;
13580;SDS011;6861;46.170;7.222;2023-05-21T00:47:51;1.73;;;0.40;;
13580;SDS011;6861;46.170;7.222;2023-05-21T00:50:21;1.33;;;0.45;;
13580;SDS011;6861;46.170;7.222;2023-05-21T00:52:49;0.40;;;0.32;;
13580;SDS011;6861;46.170;7.222;2023-05-21T00:55:18;2.60;;;0.70;;
13580;SDS011;6861;46.170;7.222;2023-05-21T00:57:47;0.63;;;0.40;;
13580;SDS011;6861;46.170;7.222;2023-05-21T01:00:16;1.20;;;0.40;;
13580;SDS011;6861;46.170;7.222;2023-05-21T01:02:44;1.80;;;1.10;;
13580;SDS011;6861;46.170;7.222;2023-05-21T01:05:13;4.95;;;2.95;;
13580;SDS011;6861;46.170;7.222;2023-05-21T01:07:41;1.17;;;0.95;;
13580;SDS011;6861;46.170;7.222;2023-05-21T01:10:10;1.05;;;0.70;;
13580;SDS011;6861;46.170;7.222;2023-05-21T01:12:38;1.00;;;0.60;;
13580;SDS011;6861;46.170;7.222;2023-05-21T01:15:11;0.52;;;0.40;;
13580;SDS011;6861;46.170;7.222;2023-05-21T01:17:40;1.23;;;0.40;;
13580;SDS011;6861;46.170;7.222;2023-05-21T01:20:11;1.77;;;0.55;;
13580;SDS011;6861;46.170;7.222;2023-05-21T01:22:49;0.70;;;0.40;;
13580;SDS011;6861;46.170;7.222;2023-05-21T01:25:22;0.93;;;0.50;;
13580;SDS011;6861;46.170;7.222;2023-05-21T01:27:50;1.02;;;0.55;;
13580;SDS011;6861;46.170;7.222;2023-05-21T01:30:19;1.45;;;0.57;;
13580;SDS011;6861;46.170;7.222;2023-05-21T01:32:51;1.13;;;0.43;;
13580;SDS011;6861;46.170;7.222;2023-05-21T01:35:26;1.33;;;0.50;;
13580;SDS011;6861;46.170;7.222;2023-05-21T01:38:02;2.13;;;0.47;;
13580;SDS011;6861;46.170;7.222;2023-05-21T01:40:36;2.83;;;0.50;;
13580;SDS011;6861;46.170;7.222;2023-05-21T01:43:08;3.22;;;0.40;;
13580;SDS011;6861;46.170;7.222;2023-05-21T01:45:38;0.60;;;0.30;;
13580;SDS011;6861;46.170;7.222;2023-05-21T01:48:08;1.85;;;0.40;;
13580;SDS011;6861;46.170;7.222;2023-05-21T01:50:39;1.95;;;0.60;;
13580;SDS011;6861;46.170;7.222;2023-05-21T01:53:09;0.47;;;0.35;;
13580;SDS011;6861;46.170;7.222;2023-05-21T01:55:37;2.17;;;0.50;;
13580;SDS011;6861;46.170;7.222;2023-05-21T01:58:07;0.60;;;0.47;;
13580;SDS011;6861;46.170;7.222;2023-05-21T02:00:35;2.33;;;0.50;;
13580;SDS011;6861;46.170;7.222;2023-05-21T02:03:05;0.80;;;0.50;;
13580;SDS011;6861;46.170;7.222;2023-05-21T02:05:34;0.73;;;0.38;;
13580;SDS011;6861;46.170;7.222;2023-05-21T02:08:03;0.90;;;0.47;;
13580;SDS011;6861;46.170;7.222;2023-05-21T02:10:35;0.68;;;0.40;;
13580;SDS011;6861;46.170;7.222;2023-05-21T02:13:03;0.98;;;0.30;;
13580;SDS011;6861;46.170;7.222;2023-05-21T02:15:31;1.10;;;0.38;;
13580;SDS011;6861;46.170;7.222;2023-05-21T02:18:01;2.72;;;0.40;;
13580;SDS011;6861;46.170;7.222;2023-05-21T02:20:30;0.50;;;0.40;;
13580;SDS011;6861;46.170;7.222;2023-05-21T02:22:58;0.50;;;0.30;;
13580;SDS011;6861;46.170;7.222;2023-05-21T02:25:26;0.55;;;0.40;;
13580;SDS011;6861;46.170;7.222;2023-05-21T02:27:56;0.50;;;0.40;;
13580;SDS011;6861;46.170;7.222;2023-05-21T02:30:24;1.13;;;0.40;;
13580;SDS011;6861;46.170;7.222;2023-05-21T02:32:53;0.63;;;0.35;;
13580;SDS011;6861;46.170;7.222;2023-05-21T02:35:24;1.27;;;0.38;;
13580;SDS011;6861;46.170;7.222;2023-05-21T02:37:52;1.60;;;0.40;;
13580;SDS011;6861;46.170;7.222;2023-05-21T02:40:24;1.05;;;0.40;;
13580;SDS011;6861;46.170;7.222;2023-05-21T02:42:52;1.40;;;0.40;;
13580;SDS011;6861;46.170;7.222;2023-05-21T02:45:22;0.55;;;0.40;;
13580;SDS011;6861;46.170;7.222;2023-05-21T02:47:50;0.82;;;0.38;;
13580;SDS011;6861;46.170;7.222;2023-05-21T02:50:18;0.50;;;0.40;;
13580;SDS011;6861;46.170;7.222;2023-05-21T02:52:48;0.50;;;0.40;;
13580;SDS011;6861;46.170;7.222;2023-05-21T02:55:16;3.53;;;0.40;;
13580;SDS011;6861;46.170;7.222;2023-05-21T02:57:44;1.58;;;0.40;;
13580;SDS011;6861;46.170;7.222;2023-05-21T03:00:12;0.65;;;0.30;;
13580;SDS011;6861;46.170;7.222;2023-05-21T03:02:43;0.43;;;0.30;;
13580;SDS011;6861;46.170;7.222;2023-05-21T03:05:11;0.70;;;0.30;;
13580;SDS011;6861;46.170;7.222;2023-05-21T03:07:39;1.02;;;0.40;;
13580;SDS011;6861;46.170;7.222;2023-05-21T03:10:09;1.25;;;0.57;;
13580;SDS011;6861;46.170;7.222;2023-05-21T03:12:37;1.20;;;0.30;;
13580;SDS011;6861;46.170;7.222;2023-05-21T03:15:05;0.70;;;0.40;;
13580;SDS011;6861;46.170;7.222;2023-05-21T03:17:34;0.90;;;0.55;;
13580;SDS011;6861;46.170;7.222;2023-05-21T03:20:04;1.02;;;0.60;;
13580;SDS011;6861;46.170;7.222;2023-05-21T03:22:34;0.90;;;0.40;;
13580;SDS011;6861;46.170;7.222;2023-05-21T03:25:03;1.95;;;0.50;;
13580;SDS011;6861;46.170;7.222;2023-05-21T03:27:31;1.40;;;0.60;;
13580;SDS011;6861;46.170;7.222;2023-05-21T03:29:59;0.90;;;0.50;;
13580;SDS011;6861;46.170;7.222;2023-05-21T03:32:27;1.88;;;0.60;;
13580;SDS011;6861;46.170;7.222;2023-05-21T03:34:55;1.10;;;0.47;;
13580;SDS011;6861;46.170;7.222;2023-05-21T03:37:25;0.60;;;0.40;;
13580;SDS011;6861;46.170;7.222;2023-05-21T03:39:53;0.88;;;0.60;;
13580;SDS011;6861;46.170;7.222;2023-05-21T03:42:21;1.27;;;0.50;;
13580;SDS011;6861;46.170;7.222;2023-05-21T03:44:49;0.57;;;0.40;;
13580;SDS011;6861;46.170;7.222;2023-05-21T03:47:17;0.63;;;0.40;;
13580;SDS011;6861;46.170;7.222;2023-05-21T03:49:45;0.68;;;0.57;;
13580;SDS011;6861;46.170;7.222;2023-05-21T03:52:13;1.05;;;0.50;;
13580;SDS011;6861;46.170;7.222;2023-05-21T03:54:43;0.57;;;0.50;;
13580;SDS011;6861;46.170;7.222;2023-05-21T03:57:11;1.25;;;0.47;;
13580;SDS011;6861;46.170;7.222;2023-05-21T03:59:39;1.27;;;0.40;;
13580;SDS011;6861;46.170;7.222;2023-05-21T04:02:07;2.05;;;0.55;;
13580;SDS011;6861;46.170;7.222;2023-05-21T04:04:35;0.80;;;0.57;;
13580;SDS011;6861;46.170;7.222;2023-05-21T04:07:03;0.93;;;0.50;;
13580;SDS011;6861;46.170;7.222;2023-05-21T04:09:35;0.75;;;0.47;;
13580;SDS011;6861;46.170;7.222;2023-05-21T04:12:05;1.35;;;0.60;;
13580;SDS011;6861;46.170;7.222;2023-05-21T04:14:34;0.77;;;0.50;;
13580;SDS011;6861;46.170;7.222;2023-05-21T04:17:03;0.80;;;0.45;;
13580;SDS011;6861;46.170;7.222;2023-05-21T04:19:31;2.25;;;0.40;;
13580;SDS011;6861;46.170;7.222;2023-05-21T04:22:00;1.30;;;0.50;;
13580;SDS011;6861;46.170;7.222;2023-05-21T04:24:28;1.35;;;0.40;;
13580;SDS011;6861;46.170;7.222;2023-05-21T04:26:56;0.70;;;0.50;;
13580;SDS011;6861;46.170;7.222;2023-05-21T04:29:28;1.35;;;0.47;;
13580;SDS011;6861;46.170;7.222;2023-05-21T04:31:56;1.00;;;0.50;;
13580;SDS011;6861;46.170;7.222;2023-05-21T04:34:24;0.60;;;0.50;;
13580;SDS011;6861;46.170;7.222;2023-05-21T04:36:52;0.80;;;0.55;;
13580;SDS011;6861;46.170;7.222;2023-05-21T04:39:22;0.60;;;0.50;;
13580;SDS011;6861;46.170;7.222;2023-05-21T04:41:50;2.83;;;0.77;;
13580;SDS011;6861;46.170;7.222;2023-05-21T04:44:20;1.73;;;1.15;;
13580;SDS011;6861;46.170;7.222;2023-05-21T04:46:49;1.38;;;0.98;;
13580;SDS011;6861;46.170;7.222;2023-05-21T04:49:18;2.17;;;0.70;;
13580;SDS011;6861;46.170;7.222;2023-05-21T04:51:47;1.52;;;0.77;;
13580;SDS011;6861;46.170;7.222;2023-05-21T04:54:18;2.13;;;0.70;;
13580;SDS011;6861;46.170;7.222;2023-05-21T04:56:46;0.70;;;0.60;;
13580;SDS011;6861;46.170;7.222;2023-05-21T04:59:14;0.75;;;0.70;;
13580;SDS011;6861;46.170;7.222;2023-05-21T05:01:44;0.73;;;0.60;;
13580;SDS011;6861;46.170;7.222;2023-05-21T05:04:13;1.25;;;0.60;;
13580;SDS011;6861;46.170;7.222;2023-05-21T05:06:41;1.13;;;0.73;;
13580;SDS011;6861;46.170;7.222;2023-05-21T05:09:10;1.05;;;0.63;;
13580;SDS011;6861;46.170;7.222;2023-05-21T05:11:38;1.05;;;0.40;;
13580;SDS011;6861;46.170;7.222;2023-05-21T05:14:06;2.05;;;0.50;;
13580;SDS011;6861;46.170;7.222;2023-05-21T05:16:34;4.03;;;0.60;;
13580;SDS011;6861;46.170;7.222;2023-05-21T05:19:02;0.95;;;0.40;;
13580;SDS011;6861;46.170;7.222;2023-05-21T05:21:32;1.70;;;0.50;;
13580;SDS011;6861;46.170;7.222;2023-05-21T05:24:00;0.95;;;0.60;;
13580;SDS011;6861;46.170;7.222;2023-05-21T05:26:28;0.50;;;0.40;;
13580;SDS011;6861;46.170;7.222;2023-05-21T05:28:56;1.50;;;0.50;;
13580;SDS011;6861;46.170;7.222;2023-05-21T05:31:24;0.82;;;0.45;;
13580;SDS011;6861;46.170;7.222;2023-05-21T05:33:52;0.88;;;0.40;;
13580;SDS011;6861;46.170;7.222;2023-05-21T05:36:20;1.10;;;0.55;;
13580;SDS011;6861;46.170;7.222;2023-05-21T05:38:50;0.65;;;0.52;;
13580;SDS011;6861;46.170;7.222;2023-05-21T05:41:19;7.15;;;0.70;;
13580;SDS011;6861;46.170;7.222;2023-05-21T05:43:47;0.75;;;0.50;;
13580;SDS011;6861;46.170;7.222;2023-05-21T05:46:15;1.58;;;0.50;;
13580;SDS011;6861;46.170;7.222;2023-05-21T05:48:43;0.50;;;0.50;;
13580;SDS011;6861;46.170;7.222;2023-05-21T05:51:11;0.52;;;0.40;;
13580;SDS011;6861;46.170;7.222;2023-05-21T05:53:40;1.42;;;0.50;;
13580;SDS011;6861;46.170;7.222;2023-05-21T05:56:10;1.02;;;0.55;;
13580;SDS011;6861;46.170;7.222;2023-05-21T05:58:38;0.90;;;0.32;;
13580;SDS011;6861;46.170;7.222;2023-05-21T06:01:06;0.57;;;0.40;;
13580;SDS011;6861;46.170;7.222;2023-05-21T06:03:34;0.57;;;0.40;;
13580;SDS011;6861;46.170;7.222;2023-05-21T06:06:02;1.20;;;0.40;;
13580;SDS011;6861;46.170;7.222;2023-05-21T06:08:31;0.70;;;0.40;;
13580;SDS011;6861;46.170;7.222;2023-05-21T06:11:03;3.22;;;0.50;;
13580;SDS011;6861;46.170;7.222;2023-05-21T06:13:32;1.38;;;0.50;;
13580;SDS011;6861;46.170;7.222;2023-05-21T06:16:02;0.82;;;0.43;;
13580;SDS011;6861;46.170;7.222;2023-05-21T06:18:30;2.50;;;0.80;;
13580;SDS011;6861;46.170;7.222;2023-05-21T06:20:58;0.77;;;0.40;;
13580;SDS011;6861;46.170;7.222;2023-05-21T06:23:26;1.50;;;0.30;;
13580;SDS011;6861;46.170;7.222;2023-05-21T06:25:55;1.17;;;0.50;;
13580;SDS011;6861;46.170;7.222;2023-05-21T06:28:23;0.45;;;0.40;;
13580;SDS011;6861;46.170;7.222;2023-05-21T06:30:52;2.00;;;0.40;;
13580;SDS011;6861;46.170;7.222;2023-05-21T06:33:20;0.50;;;0.40;;
13580;SDS011;6861;46.170;7.222;2023-05-21T06:35:49;1.15;;;0.50;;
13580;SDS011;6861;46.170;7.222;2023-05-21T06:38:17;0.40;;;0.20;;
13580;SDS011;6861;46.170;7.222;2023-05-21T06:40:45;0.60;;;0.32;;
13580;SDS011;6861;46.170;7.222;2023-05-21T06:43:14;0.73;;;0.40;;
13580;SDS011;6861;46.170;7.222;2023-05-21T06:45:42;0.73;;;0.40;;
13580;SDS011;6861;46.170;7.222;2023-05-21T06:48:12;0.60;;;0.40;;
13580;SDS011;6861;46.170;7.222;2023-05-21T06:50:41;1.35;;;0.40;;
13580;SDS011;6861;46.170;7.222;2023-05-21T06:53:09;1.20;;;0.47;;
13580;SDS011;6861;46.170;7.222;2023-05-21T06:55:39;0.47;;;0.40;;
13580;SDS011;6861;46.170;7.222;2023-05-21T06:58:10;0.60;;;0.40;;
13580;SDS011;6861;46.170;7.222;2023-05-21T07:00:38;0.80;;;0.55;;
13580;SDS011;6861;46.170;7.222;2023-05-21T07:03:06;1.30;;;0.40;;
13580;SDS011;6861;46.170;7.222;2023-05-21T07:05:36;0.70;;;0.47;;
13580;SDS011;6861;46.170;7.222;2023-05-21T07:08:05;0.50;;;0.40;;
13580;SDS011;6861;46.170;7.222;2023-05-21T07:10:34;0.60;;;0.40;;
13580;SDS011;6861;46.170;7.222;2023-05-21T07:13:02;0.80;;;0.50;;
13580;SDS011;6861;46.170;7.222;2023-05-21T07:15:30;3.40;;;0.40;;
13580;SDS011;6861;46.170;7.222;2023-05-21T07:17:58;0.82;;;0.40;;
13580;SDS011;6861;46.170;7.222;2023-05-21T07:20:27;0.40;;;0.40;;
13580;SDS011;6861;46.170;7.222;2023-05-21T07:22:56;0.82;;;0.40;;
13580;SDS011;6861;46.170;7.222;2023-05-21T07:25:24;0.73;;;0.40;;
13580;SDS011;6861;46.170;7.222;2023-05-21T07:27:53;0.40;;;0.40;;
13580;SDS011;6861;46.170;7.222;2023-05-21T07:30:21;0.40;;;0.30;;
13580;SDS011;6861;46.170;7.222;2023-05-21T07:32:49;0.50;;;0.40;;
13580;SDS011;6861;46.170;7.222;2023-05-21T07:35:17;0.50;;;0.50;;
13580;SDS011;6861;46.170;7.222;2023-05-21T07:37:46;0.80;;;0.57;;
13580;SDS011;6861;46.170;7.222;2023-05-21T07:40:16;0.95;;;0.50;;
13580;SDS011;6861;46.170;7.222;2023-05-21T07:42:44;0.90;;;0.47;;
13580;SDS011;6861;46.170;7.222;2023-05-21T07:45:12;0.60;;;0.60;;
13580;SDS011;6861;46.170;7.222;2023-05-21T07:47:40;0.50;;;0.50;;
13580;SDS011;6861;46.170;7.222;2023-05-21T07:50:09;0.60;;;0.50;;
13580;SDS011;6861;46.170;7.222;2023-05-21T07:52:38;0.60;;;0.60;;
13580;SDS011;6861;46.170;7.222;2023-05-21T07:55:07;0.50;;;0.50;;
13580;SDS011;6861;46.170;7.222;2023-05-21T07:57:37;1.05;;;0.60;;
13580;SDS011;6861;46.170;7.222;2023-05-21T08:00:05;1.00;;;0.70;;
13580;SDS011;6861;46.170;7.222;2023-05-21T08:02:35;0.93;;;0.68;;
13580;SDS011;6861;46.170;7.222;2023-05-21T08:05:04;1.13;;;0.70;;
13580;SDS011;6861;46.170;7.222;2023-05-21T08:07:33;0.93;;;0.50;;
13580;SDS011;6861;46.170;7.222;2023-05-21T08:10:02;0.85;;;0.60;;
13580;SDS011;6861;46.170;7.222;2023-05-21T08:12:30;2.15;;;0.60;;
13580;SDS011;6861;46.170;7.222;2023-05-21T08:15:00;1.38;;;0.80;;
13580;SDS011;6861;46.170;7.222;2023-05-21T08:17:28;1.95;;;0.70;;
13580;SDS011;6861;46.170;7.222;2023-05-21T08:19:56;1.13;;;0.55;;
13580;SDS011;6861;46.170;7.222;2023-05-21T08:22:25;1.23;;;0.57;;
13580;SDS011;6861;46.170;7.222;2023-05-21T08:24:53;0.90;;;0.68;;
13580;SDS011;6861;46.170;7.222;2023-05-21T08:27:21;3.72;;;0.75;;
13580;SDS011;6861;46.170;7.222;2023-05-21T08:29:50;0.73;;;0.70;;
13580;SDS011;6861;46.170;7.222;2023-05-21T08:32:19;1.65;;;0.80;;
13580;SDS011;6861;46.170;7.222;2023-05-21T08:34:48;0.60;;;0.60;;
13580;SDS011;6861;46.170;7.222;2023-05-21T08:37:16;1.45;;;0.98;;
13580;SDS011;6861;46.170;7.222;2023-05-21T08:39:44;0.68;;;0.68;;
13580;SDS011;6861;46.170;7.222;2023-05-21T08:42:14;1.52;;;1.00;;
13580;SDS011;6861;46.170;7.222;2023-05-21T08:45:03;1.55;;;0.80;;
13580;SDS011;6861;46.170;7.222;2023-05-21T08:47:34;0.77;;;0.70;;
13580;SDS011;6861;46.170;7.222;2023-05-21T08:50:03;0.80;;;0.80;;
13580;SDS011;6861;46.170;7.222;2023-05-21T08:52:35;0.98;;;0.80;;
13580;SDS011;6861;46.170;7.222;2023-05-21T08:55:04;1.40;;;0.70;;
13580;SDS011;6861;46.170;7.222;2023-05-21T08:57:33;0.70;;;0.70;;
13580;SDS011;6861;46.170;7.222;2023-05-21T09:00:02;1.55;;;0.90;;
13580;SDS011;6861;46.170;7.222;2023-05-21T09:02:34;1.58;;;0.80;;
13580;SDS011;6861;46.170;7.222;2023-05-21T09:05:06;0.70;;;0.70;;
13580;SDS011;6861;46.170;7.222;2023-05-21T09:07:38;0.82;;;0.82;;
13580;SDS011;6861;46.170;7.222;2023-05-21T09:10:11;0.90;;;0.80;;
13580;SDS011;6861;46.170;7.222;2023-05-21T09:12:40;2.10;;;0.88;;
13580;SDS011;6861;46.170;7.222;2023-05-21T09:15:08;1.00;;;0.90;;
13580;SDS011;6861;46.170;7.222;2023-05-21T09:17:38;1.00;;;0.90;;
13580;SDS011;6861;46.170;7.222;2023-05-21T09:20:07;0.95;;;0.82;;
13580;SDS011;6861;46.170;7.222;2023-05-21T09:22:40;1.27;;;0.90;;
13580;SDS011;6861;46.170;7.222;2023-05-21T09:25:10;1.30;;;0.90;;
13580;SDS011;6861;46.170;7.222;2023-05-21T09:27:38;1.23;;;0.90;;
13580;SDS011;6861;46.170;7.222;2023-05-21T09:30:08;0.95;;;0.90;;
13580;SDS011;6861;46.170;7.222;2023-05-21T09:32:39;0.98;;;0.88;;
13580;SDS011;6861;46.170;7.222;2023-05-21T09:35:08;1.75;;;1.20;;
13580;SDS011;6861;46.170;7.222;2023-05-21T09:37:38;0.80;;;0.80;;
13580;SDS011;6861;46.170;7.222;2023-05-21T09:40:10;1.25;;;0.80;;
13580;SDS011;6861;46.170;7.222;2023-05-21T09:42:39;1.17;;;1.00;;
13580;SDS011;6861;46.170;7.222;2023-05-21T09:45:08;2.17;;;1.10;;
13580;SDS011;6861;46.170;7.222;2023-05-21T09:47:42;2.65;;;1.88;;
13580;SDS011;6861;46.170;7.222;2023-05-21T09:50:12;2.33;;;2.13;;
13580;SDS011;6861;46.170;7.222;2023-05-21T09:52:44;4.00;;;2.60;;
13580;SDS011;6861;46.170;7.222;2023-05-21T09:55:13;3.72;;;2.05;;
13580;SDS011;6861;46.170;7.222;2023-05-21T09:57:42;1.70;;;1.25;;
13580;SDS011;6861;46.170;7.222;2023-05-21T10:00:16;1.20;;;1.10;;
13580;SDS011;6861;46.170;7.222;2023-05-21T10:02:47;2.88;;;1.35;;
13580;SDS011;6861;46.170;7.222;2023-05-21T10:05:16;1.95;;;1.40;;
13580;SDS011;6861;46.170;7.222;2023-05-21T10:07:48;1.88;;;1.50;;
13580;SDS011;6861;46.170;7.222;2023-05-21T10:10:18;1.25;;;1.00;;
13580;SDS011;6861;46.170;7.222;2023-05-21T10:12:53;1.45;;;1.33;;
13580;SDS011;6861;46.170;7.222;2023-05-21T10:15:26;0.60;;;0.60;;
13580;SDS011;6861;46.170;7.222;2023-05-21T10:17:59;1.20;;;1.00;;
13580;SDS011;6861;46.170;7.222;2023-05-21T10:20:30;1.42;;;0.70;;
13580;SDS011;6861;46.170;7.222;2023-05-21T10:22:59;0.77;;;0.68;;
13580;SDS011;6861;46.170;7.222;2023-05-21T10:25:29;1.23;;;0.80;;
13580;SDS011;6861;46.170;7.222;2023-05-21T10:27:58;1.80;;;0.90;;
13580;SDS011;6861;46.170;7.222;2023-05-21T10:30:26;2.28;;;0.73;;
13580;SDS011;6861;46.170;7.222;2023-05-21T10:32:55;1.10;;;0.80;;
13580;SDS011;6861;46.170;7.222;2023-05-21T10:35:26;1.02;;;0.60;;
13580;SDS011;6861;46.170;7.222;2023-05-21T10:37:56;1.25;;;0.70;;
13580;SDS011;6861;46.170;7.222;2023-05-21T10:40:25;0.55;;;0.50;;
13580;SDS011;6861;46.170;7.222;2023-05-21T10:46:06;0.68;;;0.55;;
13580;SDS011;6861;46.170;7.222;2023-05-21T10:49:00;0.60;;;0.50;;
13580;SDS011;6861;46.170;7.222;2023-05-21T10:51:43;2.28;;;0.45;;
13580;SDS011;6861;46.170;7.222;2023-05-21T10:57:21;0.60;;;0.60;;
13580;SDS011;6861;46.170;7.222;2023-05-21T11:00:00;0.70;;;0.50;;
13580;SDS011;6861;46.170;7.222;2023-05-21T11:02:30;1.08;;;0.60;;
13580;SDS011;6861;46.170;7.222;2023-05-21T11:05:00;0.75;;;0.60;;
13580;SDS011;6861;46.170;7.222;2023-05-21T11:10:29;0.85;;;0.55;;
13580;SDS011;6861;46.170;7.222;2023-05-21T11:13:09;0.70;;;0.70;;
13580;SDS011;6861;46.170;7.222;2023-05-21T11:21:30;0.50;;;0.50;;
13580;SDS011;6861;46.170;7.222;2023-05-21T11:24:04;0.95;;;0.82;;
13580;SDS011;6861;46.170;7.222;2023-05-21T11:29:36;0.88;;;0.75;;
13580;SDS011;6861;46.170;7.222;2023-05-21T11:32:13;1.05;;;0.82;;
13580;SDS011;6861;46.170;7.222;2023-05-21T11:34:43;0.88;;;0.70;;
13580;SDS011;6861;46.170;7.222;2023-05-21T11:40:18;1.75;;;0.88;;
13580;SDS011;6861;46.170;7.222;2023-05-21T11:42:49;0.90;;;0.80;;
13580;SDS011;6861;46.170;7.222;2023-05-21T11:45:19;0.88;;;0.88;;
13580;SDS011;6861;46.170;7.222;2023-05-21T11:47:49;1.63;;;1.05;;
13580;SDS011;6861;46.170;7.222;2023-05-21T11:50:18;2.53;;;1.10;;
13580;SDS011;6861;46.170;7.222;2023-05-21T11:52:46;1.65;;;1.48;;
13580;SDS011;6861;46.170;7.222;2023-05-21T11:55:21;1.10;;;1.00;;
13580;SDS011;6861;46.170;7.222;2023-05-21T11:57:52;0.80;;;0.80;;
13580;SDS011;6861;46.170;7.222;2023-05-21T12:00:22;2.38;;;1.00;;
13580;SDS011;6861;46.170;7.222;2023-05-21T12:02:50;1.27;;;1.15;;
13580;SDS011;6861;46.170;7.222;2023-05-21T12:05:23;1.10;;;1.00;;
13580;SDS011;6861;46.170;7.222;2023-05-21T12:07:52;1.27;;;1.17;;
13580;SDS011;6861;46.170;7.222;2023-05-21T12:10:23;1.92;;;1.30;;
13580;SDS011;6861;46.170;7.222;2023-05-21T12:12:51;1.73;;;1.60;;
13580;SDS011;6861;46.170;7.222;2023-05-21T12:15:23;2.63;;;1.50;;
13580;SDS011;6861;46.170;7.222;2023-05-21T12:17:53;2.17;;;1.30;;
13580;SDS011;6861;46.170;7.222;2023-05-21T12:20:24;1.10;;;1.00;;
13580;SDS011;6861;46.170;7.222;2023-05-21T12:22:55;1.98;;;1.17;;
13580;SDS011;6861;46.170;7.222;2023-05-21T12:25:25;1.85;;;1.35;;
13580;SDS011;6861;46.170;7.222;2023-05-21T12:27:55;1.92;;;1.40;;
13580;SDS011;6861;46.170;7.222;2023-05-21T12:30:24;1.27;;;1.10;;
13580;SDS011;6861;46.170;7.222;2023-05-21T12:32:56;3.03;;;1.45;;
13580;SDS011;6861;46.170;7.222;2023-05-21T12:35:25;1.70;;;1.52;;
13580;SDS011;6861;46.170;7.222;2023-05-21T12:37:53;2.63;;;1.98;;
13580;SDS011;6861;46.170;7.222;2023-05-21T12:40:23;3.97;;;1.83;;
13580;SDS011;6861;46.170;7.222;2023-05-21T12:43:05;3.25;;;2.00;;
13580;SDS011;6861;46.170;7.222;2023-05-21T12:45:33;3.50;;;1.90;;
13580;SDS011;6861;46.170;7.222;2023-05-21T12:48:05;4.78;;;2.45;;
13580;SDS011;6861;46.170;7.222;2023-05-21T12:50:33;4.30;;;1.90;;
13580;SDS011;6861;46.170;7.222;2023-05-21T12:53:07;3.22;;;2.13;;
13580;SDS011;6861;46.170;7.222;2023-05-21T12:55:37;3.95;;;2.10;;
13580;SDS011;6861;46.170;7.222;2023-05-21T12:58:06;3.08;;;2.22;;
13580;SDS011;6861;46.170;7.222;2023-05-21T13:00:35;4.43;;;2.60;;
13580;SDS011;6861;46.170;7.222;2023-05-21T13:03:03;2.38;;;2.03;;
13580;SDS011;6861;46.170;7.222;2023-05-21T13:05:32;2.40;;;1.83;;
13580;SDS011;6861;46.170;7.222;2023-05-21T13:08:01;2.90;;;2.10;;
13580;SDS011;6861;46.170;7.222;2023-05-21T13:10:29;2.17;;;1.98;;
13580;SDS011;6861;46.170;7.222;2023-05-21T13:12:58;2.30;;;2.10;;
13580;SDS011;6861;46.170;7.222;2023-05-21T13:15:27;2.53;;;2.30;;
13580;SDS011;6861;46.170;7.222;2023-05-21T13:17:56;3.00;;;2.45;;
13580;SDS011;6861;46.170;7.222;2023-05-21T13:20:26;2.20;;;2.00;;
13580;SDS011;6861;46.170;7.222;2023-05-21T13:22:55;2.45;;;2.25;;
13580;SDS011;6861;46.170;7.222;2023-05-21T13:25:23;3.30;;;2.17;;
13580;SDS011;6861;46.170;7.222;2023-05-21T13:27:54;4.30;;;2.08;;
13580;SDS011;6861;46.170;7.222;2023-05-21T13:30:25;2.20;;;2.00;;
13580;SDS011;6861;46.170;7.222;2023-05-21T13:32:53;2.05;;;1.85;;
13580;SDS011;6861;46.170;7.222;2023-05-21T13:35:21;2.10;;;1.90;;
13580;SDS011;6861;46.170;7.222;2023-05-21T13:37:49;1.90;;;1.80;;
13580;SDS011;6861;46.170;7.222;2023-05-21T13:40:17;1.90;;;1.80;;
13580;SDS011;6861;46.170;7.222;2023-05-21T13:42:46;2.55;;;2.00;;
13580;SDS011;6861;46.170;7.222;2023-05-21T13:45:16;2.90;;;2.40;;
13580;SDS011;6861;46.170;7.222;2023-05-21T13:47:46;2.50;;;2.30;;
13580;SDS011;6861;46.170;7.222;2023-05-21T13:50:15;4.68;;;1.80;;
13580;SDS011;6861;46.170;7.222;2023-05-21T13:52:43;1.80;;;1.70;;
13580;SDS011;6861;46.170;7.222;2023-05-21T13:55:11;2.40;;;1.70;;
13580;SDS011;6861;46.170;7.222;2023-05-21T13:57:41;2.83;;;2.25;;
13580;SDS011;6861;46.170;7.222;2023-05-21T14:00:10;3.65;;;2.40;;
13580;SDS011;6861;46.170;7.222;2023-05-21T14:02:41;3.97;;;2.58;;
13580;SDS011;6861;46.170;7.222;2023-05-21T14:05:11;3.83;;;2.50;;
13580;SDS011;6861;46.170;7.222;2023-05-21T14:07:39;3.88;;;2.65;;
13580;SDS011;6861;46.170;7.222;2023-05-21T14:10:08;2.70;;;2.47;;
13580;SDS011;6861;46.170;7.222;2023-05-21T14:12:37;3.58;;;2.30;;
13580;SDS011;6861;46.170;7.222;2023-05-21T14:15:06;2.70;;;2.50;;
13580;SDS011;6861;46.170;7.222;2023-05-21T14:17:35;3.28;;;2.40;;
13580;SDS011;6861;46.170;7.222;2023-05-21T14:20:06;2.13;;;1.92;;
13580;SDS011;6861;46.170;7.222;2023-05-21T14:22:36;2.47;;;2.28;;
13580;SDS011;6861;46.170;7.222;2023-05-21T14:25:05;2.85;;;2.05;;
13580;SDS011;6861;46.170;7.222;2023-05-21T14:27:34;2.40;;;2.20;;
13580;SDS011;6861;46.170;7.222;2023-05-21T14:30:04;2.35;;;2.15;;
13580;SDS011;6861;46.170;7.222;2023-05-21T14:32:33;2.40;;;2.20;;
13580;SDS011;6861;46.170;7.222;2023-05-21T14:35:01;2.30;;;2.05;;
13580;SDS011;6861;46.170;7.222;2023-05-21T14:37:30;3.45;;;2.50;;
13580;SDS011;6861;46.170;7.222;2023-05-21T14:40:00;4.82;;;2.63;;
13580;SDS011;6861;46.170;7.222;2023-05-21T14:42:28;2.47;;;2.17;;
13580;SDS011;6861;46.170;7.222;2023-05-21T14:44:57;2.47;;;2.28;;
13580;SDS011;6861;46.170;7.222;2023-05-21T14:47:43;2.40;;;2.20;;
13580;SDS011;6861;46.170;7.222;2023-05-21T14:50:11;3.97;;;2.25;;
13580;SDS011;6861;46.170;7.222;2023-05-21T14:52:39;3.03;;;2.20;;
13580;SDS011;6861;46.170;7.222;2023-05-21T14:55:10;2.33;;;2.13;;
13580;SDS011;6861;46.170;7.222;2023-05-21T14:57:39;3.85;;;2.45;;
13580;SDS011;6861;46.170;7.222;2023-05-21T15:00:07;3.20;;;2.35;;
13580;SDS011;6861;46.170;7.222;2023-05-21T15:02:37;2.53;;;2.30;;
13580;SDS011;6861;46.170;7.222;2023-05-21T15:05:06;2.58;;;2.22;;
13580;SDS011;6861;46.170;7.222;2023-05-21T15:07:34;3.63;;;2.42;;
13580;SDS011;6861;46.170;7.222;2023-05-21T15:10:03;2.92;;;2.10;;
13580;SDS011;6861;46.170;7.222;2023-05-21T15:12:33;2.30;;;2.10;;
13580;SDS011;6861;46.170;7.222;2023-05-21T15:15:01;2.42;;;2.10;;
13580;SDS011;6861;46.170;7.222;2023-05-21T15:17:29;2.35;;;2.08;;
13580;SDS011;6861;46.170;7.222;2023-05-21T15:19:58;2.40;;;2.20;;
13580;SDS011;6861;46.170;7.222;2023-05-21T15:22:29;3.55;;;2.28;;
13580;SDS011;6861;46.170;7.222;2023-05-21T15:24:58;2.40;;;2.20;;
13580;SDS011;6861;46.170;7.222;2023-05-21T15:27:26;2.90;;;2.20;;
13580;SDS011;6861;46.170;7.222;2023-05-21T15:29:56;5.97;;;2.70;;
13580;SDS011;6861;46.170;7.222;2023-05-21T15:32:24;3.63;;;2.20;;
13580;SDS011;6861;46.170;7.222;2023-05-21T15:34:52;2.45;;;2.22;;